Time;durP1;ratioP1;P1;durP2;ratioP2;P2;SDS_P1;SDS_P2;PMS_P1;PMS_P2;Temp;Humidity;BMP_temperature;BMP_pressure;BME280_temperature;BME280_humidity;BME280_pressure;Samples;Min_cycle;Max_cycle;Signal;HPM_P1;HPM_P2
2020/12/21 00:01:31;;;;;;;18.23;10.60;;;;;;;;;;10402991;28;20570;-72
2020/12/21 00:06:33;;;;;;;15.87;9.50;;;;;;;;;;10404845;28;20232;-72
2020/12/21 00:11:35;;;;;;;18.83;10.43;;;;;;;;;;10401952;28;20256;-73
2020/12/21 00:16:38;;;;;;;22.90;13.07;;;;;;;;;;10399237;28;20575;-72
2020/12/21 00:21:41;;;;;;;18.47;10.30;;;;;;;;;;10398156;28;20288;-73
2020/12/21 00:26:44;;;;;;;17.57;10.17;;;;;;;;;;10401885;28;20665;-73
2020/12/21 00:31:46;;;;;;;16.67;9.80;;;;;;;;;;10402577;28;20217;-73
2020/12/21 00:36:50;;;;;;;18.07;9.67;;;;;;;;;;10389646;28;20198;-72
2020/12/21 00:41:51;;;;;;;15.90;9.20;;;;;;;;;;10392334;28;20218;-72
2020/12/21 00:46:53;;;;;;;16.83;8.70;;;;;;;;;;10393124;28;20213;-73
2020/12/21 00:51:55;;;;;;;17.13;9.33;;;;;;;;;;10392541;28;20289;-72
2020/12/21 00:56:57;;;;;;;17.17;10.17;;;;;;;;;;10398613;28;20259;-73
2020/12/21 01:01:58;;;;;;;15.97;9.70;;;;;;;;;;10399376;28;20307;-72
2020/12/21 01:07:01;;;;;;;16.43;9.73;;;;;;;;;;10397120;28;20225;-73
2020/12/21 01:12:03;;;;;;;17.03;9.90;;;;;;;;;;10401585;28;20206;-72
2020/12/21 01:17:04;;;;;;;16.97;9.80;;;;;;;;;;10388675;28;20738;-73
2020/12/21 01:22:07;;;;;;;15.40;9.50;;;;;;;;;;10394215;28;20225;-71
2020/12/21 01:27:08;;;;;;;15.73;9.17;;;;;;;;;;10401047;28;20194;-73
2020/12/21 01:32:10;;;;;;;16.63;9.47;;;;;;;;;;10392323;28;20582;-72
2020/12/21 01:37:12;;;;;;;15.33;8.87;;;;;;;;;;10401400;28;20201;-72
2020/12/21 01:42:14;;;;;;;16.53;9.57;;;;;;;;;;10396870;28;20316;-71
2020/12/21 01:47:16;;;;;;;16.97;9.27;;;;;;;;;;10400720;28;20190;-72
2020/12/21 01:52:19;;;;;;;17.07;9.80;;;;;;;;;;10398944;28;20289;-72
2020/12/21 01:57:21;;;;;;;16.53;9.67;;;;;;;;;;10400468;28;20200;-72
2020/12/21 02:02:23;;;;;;;16.73;9.90;;;;;;;;;;10401677;28;20213;-72
2020/12/21 02:07:26;;;;;;;14.83;9.03;;;;;;;;;;10396678;28;20252;-73
2020/12/21 02:12:28;;;;;;;14.43;8.67;;;;;;;;;;10396034;28;20694;-72
2020/12/21 02:17:29;;;;;;;15.17;8.27;;;;;;;;;;10396802;28;20186;-73
2020/12/21 02:22:32;;;;;;;14.03;8.13;;;;;;;;;;10400031;28;20213;-73
2020/12/21 02:27:33;;;;;;;13.03;7.57;;;;;;;;;;10396939;28;20204;-73
2020/12/21 02:32:35;;;;;;;13.53;7.43;;;;;;;;;;10397088;28;20583;-72
2020/12/21 02:37:37;;;;;;;14.90;8.03;;;;;;;;;;10399686;28;20654;-72
2020/12/21 02:42:39;;;;;;;13.53;7.60;;;;;;;;;;10394433;28;20214;-73
2020/12/21 02:47:40;;;;;;;11.97;6.90;;;;;;;;;;10396720;28;20221;-73
2020/12/21 02:52:43;;;;;;;14.90;8.80;;;;;;;;;;10400189;28;20728;-73
2020/12/21 02:57:44;;;;;;;14.57;8.57;;;;;;;;;;10400698;28;20293;-73
2020/12/21 03:02:46;;;;;;;14.23;8.40;;;;;;;;;;10403002;28;20600;-73
2020/12/21 03:07:48;;;;;;;14.27;8.30;;;;;;;;;;10405586;28;20225;-73
2020/12/21 03:12:49;;;;;;;15.00;7.87;;;;;;;;;;10407079;28;20221;-73
2020/12/21 03:17:51;;;;;;;11.73;7.10;;;;;;;;;;10404812;28;20217;-73
2020/12/21 03:22:53;;;;;;;13.43;7.57;;;;;;;;;;10404381;28;20277;-73
2020/12/21 03:27:55;;;;;;;11.17;6.67;;;;;;;;;;10405166;28;20193;-73
2020/12/21 03:32:56;;;;;;;13.57;7.37;;;;;;;;;;10419716;28;20229;-73
2020/12/21 03:38:01;;;;;;;13.83;7.67;;;;;;;;;;10404462;28;20753;-73
2020/12/21 03:43:03;;;;;;;13.60;8.20;;;;;;;;;;10405735;28;20716;-73
2020/12/21 03:48:04;;;;;;;13.43;8.03;;;;;;;;;;10406392;28;20182;-73
2020/12/21 03:53:07;;;;;;;15.67;8.37;;;;;;;;;;10407501;28;20309;-73
2020/12/21 03:58:08;;;;;;;13.57;8.03;;;;;;;;;;10406211;28;20699;-73
2020/12/21 04:03:10;;;;;;;13.17;8.00;;;;;;;;;;10408179;28;20578;-74
2020/12/21 04:08:22;;;;;;;12.17;7.37;;;;;;;;;;10402273;28;20269;-73
2020/12/21 04:13:24;;;;;;;13.70;7.47;;;;;;;;;;10406240;28;20241;-73
2020/12/21 04:18:38;;;;;;;13.87;7.33;;;;;;;;;;10405890;28;20272;-73
2020/12/21 04:23:40;;;;;;;13.17;8.03;;;;;;;;;;10405198;28;20235;-74
2020/12/21 04:28:42;;;;;;;14.20;8.13;;;;;;;;;;10405494;28;20190;-73
2020/12/21 04:33:44;;;;;;;12.80;7.70;;;;;;;;;;10396149;28;20233;-74
2020/12/21 04:38:46;;;;;;;13.37;7.63;;;;;;;;;;10394474;28;20241;-73
2020/12/21 04:43:48;;;;;;;13.73;7.67;;;;;;;;;;10395145;28;20233;-71
2020/12/21 04:48:49;;;;;;;14.97;8.43;;;;;;;;;;10395655;28;20236;-73
2020/12/21 04:53:52;;;;;;;14.73;7.90;;;;;;;;;;10394642;28;20665;-72
2020/12/21 04:58:53;;;;;;;13.40;7.50;;;;;;;;;;10398460;28;20305;-73
2020/12/21 05:03:55;;;;;;;13.10;7.70;;;;;;;;;;10404628;28;20222;-73
2020/12/21 05:09:01;;;;;;;14.40;7.70;;;;;;;;;;10402474;28;20194;-73
2020/12/21 05:14:04;;;;;;;13.57;7.50;;;;;;;;;;10405274;28;20205;-73
2020/12/21 05:19:06;;;;;;;13.43;7.97;;;;;;;;;;10401793;28;20587;-73
2020/12/21 05:24:08;;;;;;;14.27;7.77;;;;;;;;;;10402378;28;20217;-74
2020/12/21 05:29:10;;;;;;;13.70;8.00;;;;;;;;;;10399386;28;20200;-74
2020/12/21 05:34:11;;;;;;;14.47;8.87;;;;;;;;;;10397837;28;20275;-73
2020/12/21 05:39:18;;;;;;;14.20;8.43;;;;;;;;;;10404104;28;20214;-71
2020/12/21 05:44:20;;;;;;;14.60;8.53;;;;;;;;;;10402275;28;20278;-72
2020/12/21 05:49:21;;;;;;;15.93;8.90;;;;;;;;;;10404395;28;20186;-71
2020/12/21 05:54:24;;;;;;;13.70;8.20;;;;;;;;;;10397643;28;20603;-74
2020/12/21 05:59:26;;;;;;;15.30;9.07;;;;;;;;;;10402712;28;20283;-73
2020/12/21 06:04:34;;;;;;;11.47;7.70;;;;;;;;;;10400978;28;20312;-72
2020/12/21 06:09:36;;;;;;;13.93;7.77;;;;;;;;;;10400052;28;20187;-73
2020/12/21 06:14:40;;;;;;;15.03;8.67;;;;;;;;;;10402825;28;20292;-73
2020/12/21 06:19:41;;;;;;;14.83;8.53;;;;;;;;;;10398907;28;20206;-73
2020/12/21 06:24:44;;;;;;;13.80;7.93;;;;;;;;;;10402611;28;20693;-72
2020/12/21 06:29:59;;;;;;;13.93;7.20;;;;;;;;;;10404048;28;20192;-73
2020/12/21 06:35:03;;;;;;;15.33;7.83;;;;;;;;;;10404068;28;20290;-70
2020/12/21 06:40:06;;;;;;;17.17;9.33;;;;;;;;;;10408776;28;20219;-72
2020/12/21 06:45:11;;;;;;;16.97;10.07;;;;;;;;;;10407240;28;20229;-71
2020/12/21 06:50:12;;;;;;;18.33;11.43;;;;;;;;;;10409566;28;20186;-72
2020/12/21 06:55:15;;;;;;;20.27;11.97;;;;;;;;;;10407093;28;20680;-73
2020/12/21 07:00:20;;;;;;;24.07;13.73;;;;;;;;;;10410163;28;20271;-73
2020/12/21 07:05:21;;;;;;;26.73;14.63;;;;;;;;;;10408816;28;20245;-72
2020/12/21 07:10:24;;;;;;;24.93;14.00;;;;;;;;;;10409003;28;20194;-73
2020/12/21 07:15:25;;;;;;;23.97;13.60;;;;;;;;;;10415804;28;20247;-73
2020/12/21 07:20:27;;;;;;;20.63;11.90;;;;;;;;;;10407963;28;20332;-71
2020/12/21 07:25:29;;;;;;;16.87;9.90;;;;;;;;;;10409020;28;20259;-72
2020/12/21 07:30:31;;;;;;;16.57;10.07;;;;;;;;;;10407966;28;20251;-73
2020/12/21 07:35:32;;;;;;;17.80;9.73;;;;;;;;;;10407186;28;20256;-72
2020/12/21 07:40:35;;;;;;;13.87;7.83;;;;;;;;;;10408042;28;20542;-73
2020/12/21 07:45:38;;;;;;;11.83;6.53;;;;;;;;;;10408295;28;20237;-74
2020/12/21 07:50:40;;;;;;;14.30;7.10;;;;;;;;;;10403205;28;20202;-73
2020/12/21 07:55:53;;;;;;;12.80;6.83;;;;;;;;;;10407321;28;20225;-73
2020/12/21 08:00:55;;;;;;;12.63;7.10;;;;;;;;;;10405443;28;20217;-74
2020/12/21 08:06:10;;;;;;;15.10;7.27;;;;;;;;;;10401821;28;20418;-73
2020/12/21 08:11:13;;;;;;;14.03;7.33;;;;;;;;;;10406010;28;20208;-74
2020/12/21 08:16:15;;;;;;;16.40;7.57;;;;;;;;;;10405851;28;20214;-73
2020/12/21 08:21:16;;;;;;;13.40;6.97;;;;;;;;;;10404266;28;20229;-73
2020/12/21 08:26:19;;;;;;;11.97;6.53;;;;;;;;;;10405241;28;20200;-76
2020/12/21 08:31:21;;;;;;;12.40;6.97;;;;;;;;;;10406179;28;20210;-74
2020/12/21 08:36:24;;;;;;;11.93;5.93;;;;;;;;;;10392799;28;20682;-74
2020/12/21 08:41:34;;;;;;;10.33;5.97;;;;;;;;;;10398195;28;20291;-74
2020/12/21 08:46:35;;;;;;;11.37;6.17;;;;;;;;;;10392430;28;20721;-70
2020/12/21 08:51:37;;;;;;;11.63;6.83;;;;;;;;;;10392213;28;20233;-71
2020/12/21 08:56:40;;;;;;;12.23;6.70;;;;;;;;;;10401311;28;20178;-74
2020/12/21 09:01:42;;;;;;;12.23;7.13;;;;;;;;;;10404235;28;20480;-72
2020/12/21 09:06:43;;;;;;;13.80;6.77;;;;;;;;;;10402314;28;20294;-72
2020/12/21 09:11:46;;;;;;;12.87;7.00;;;;;;;;;;10405001;28;20292;-73
2020/12/21 09:16:47;;;;;;;11.80;7.07;;;;;;;;;;10399619;28;20193;-72
2020/12/21 09:21:49;;;;;;;12.60;6.80;;;;;;;;;;10403642;28;20759;-73
2020/12/21 09:26:51;;;;;;;10.93;6.60;;;;;;;;;;10399116;28;20281;-73
2020/12/21 09:31:53;;;;;;;12.53;6.43;;;;;;;;;;10403304;28;20321;-73
2020/12/21 09:36:55;;;;;;;12.23;6.70;;;;;;;;;;10398942;28;20214;-73
2020/12/21 09:41:58;;;;;;;11.57;7.40;;;;;;;;;;10398503;28;20221;-73
2020/12/21 09:46:59;;;;;;;13.13;6.93;;;;;;;;;;10405109;28;20288;-72
2020/12/21 09:52:01;;;;;;;10.60;6.43;;;;;;;;;;10401646;28;20217;-71
2020/12/21 09:57:04;;;;;;;12.50;7.10;;;;;;;;;;10404017;28;20575;-72
2020/12/21 10:02:07;;;;;;;11.40;6.80;;;;;;;;;;10399100;28;20221;-71
2020/12/21 10:07:08;;;;;;;12.37;7.03;;;;;;;;;;10401947;28;20236;-72
2020/12/21 10:12:11;;;;;;;9.90;6.20;;;;;;;;;;10410059;28;20617;-72
2020/12/21 10:17:12;;;;;;;10.50;6.43;;;;;;;;;;10409779;28;20198;-72
2020/12/21 10:22:14;;;;;;;9.87;6.40;;;;;;;;;;10408970;28;20289;-72
2020/12/21 10:27:17;;;;;;;11.37;6.00;;;;;;;;;;10409143;28;20198;-74
2020/12/21 10:32:19;;;;;;;10.20;6.00;;;;;;;;;;10406777;28;20217;-73
2020/12/21 10:37:21;;;;;;;10.03;5.90;;;;;;;;;;10409478;28;20212;-72
2020/12/21 10:42:26;;;;;;;11.10;6.17;;;;;;;;;;10410053;28;20221;-72
2020/12/21 10:47:29;;;;;;;12.00;6.57;;;;;;;;;;10409425;28;20677;-72
2020/12/21 10:52:31;;;;;;;13.77;7.40;;;;;;;;;;10409592;28;20209;-73
2020/12/21 10:57:33;;;;;;;10.50;6.77;;;;;;;;;;10408882;28;20193;-73
2020/12/21 11:02:35;;;;;;;11.67;7.03;;;;;;;;;;10407170;28;20225;-73
2020/12/21 11:07:36;;;;;;;11.00;6.83;;;;;;;;;;10395477;28;20276;-72
2020/12/21 11:12:44;;;;;;;11.00;6.60;;;;;;;;;;10411096;28;20206;-72
2020/12/21 11:17:45;;;;;;;10.87;6.80;;;;;;;;;;10408762;28;20252;-73
2020/12/21 11:22:47;;;;;;;11.40;6.67;;;;;;;;;;10405834;28;20218;-73
2020/12/21 11:27:49;;;;;;;12.77;7.23;;;;;;;;;;10408481;28;20200;-74
2020/12/21 11:32:51;;;;;;;9.80;6.20;;;;;;;;;;10407875;28;20212;-73
2020/12/21 11:37:53;;;;;;;16.20;9.10;;;;;;;;;;10408075;28;20606;-73
2020/12/21 11:43:00;;;;;;;13.03;7.90;;;;;;;;;;10406413;28;20248;-73
2020/12/21 11:48:01;;;;;;;11.20;6.10;;;;;;;;;;10397065;28;20629;-71
2020/12/21 11:53:04;;;;;;;10.63;6.63;;;;;;;;;;10404758;28;20524;-72
2020/12/21 11:58:06;;;;;;;13.00;7.50;;;;;;;;;;10399464;28;20293;-70
2020/12/21 12:03:08;;;;;;;11.43;6.87;;;;;;;;;;10398536;28;20316;-72
2020/12/21 12:08:09;;;;;;;12.60;7.10;;;;;;;;;;10404405;28;20681;-72
2020/12/21 12:13:20;;;;;;;12.13;7.40;;;;;;;;;;10396612;28;20210;-72
2020/12/21 12:18:22;;;;;;;12.10;7.13;;;;;;;;;;10403455;28;20269;-72
2020/12/21 12:23:23;;;;;;;12.27;7.70;;;;;;;;;;10398422;28;20244;-72
2020/12/21 12:28:26;;;;;;;11.37;6.87;;;;;;;;;;10403432;28;20313;-73
2020/12/21 12:33:27;;;;;;;12.20;7.23;;;;;;;;;;10401411;28;20439;-72
2020/12/21 12:38:29;;;;;;;12.10;7.10;;;;;;;;;;10392553;28;20292;-72
2020/12/21 12:43:40;;;;;;;10.60;7.07;;;;;;;;;;10398989;28;20555;-72
2020/12/21 12:48:42;;;;;;;12.50;7.73;;;;;;;;;;10394682;28;20194;-72
2020/12/21 12:53:44;;;;;;;15.00;7.23;;;;;;;;;;10394446;28;20304;-72
2020/12/21 12:58:46;;;;;;;12.60;7.33;;;;;;;;;;10392950;28;20225;-73
2020/12/21 13:03:48;;;;;;;11.13;7.07;;;;;;;;;;10401043;28;20209;-73
2020/12/21 13:08:49;;;;;;;11.13;6.90;;;;;;;;;;10399927;28;20209;-73
2020/12/21 13:13:59;;;;;;;13.77;7.53;;;;;;;;;;10397624;28;20245;-73
2020/12/21 13:19:01;;;;;;;12.27;7.47;;;;;;;;;;10399252;28;20200;-71
2020/12/21 13:24:03;;;;;;;12.80;7.13;;;;;;;;;;10397800;28;20213;-70
2020/12/21 13:29:05;;;;;;;14.17;7.67;;;;;;;;;;10404884;28;20201;-72
2020/12/21 13:34:07;;;;;;;13.97;7.83;;;;;;;;;;10393832;28;20295;-72
2020/12/21 13:39:10;;;;;;;13.40;7.90;;;;;;;;;;10401105;28;20225;-70
2020/12/21 13:44:33;;;;;;;15.23;8.70;;;;;;;;;;10398860;28;20241;-73
2020/12/21 13:49:35;;;;;;;14.77;7.57;;;;;;;;;;10396701;28;20560;-71
2020/12/21 13:54:36;;;;;;;12.40;7.60;;;;;;;;;;10399877;28;20289;-74
2020/12/21 13:59:39;;;;;;;12.00;7.70;;;;;;;;;;10401718;28;20214;-72
2020/12/21 14:04:40;;;;;;;14.80;8.17;;;;;;;;;;10397819;28;20288;-72
2020/12/21 14:09:42;;;;;;;12.40;7.30;;;;;;;;;;10402198;28;20193;-73
2020/12/21 14:14:44;;;;;;;12.00;6.87;;;;;;;;;;10398745;28;20244;-73
2020/12/21 14:19:46;;;;;;;12.63;7.13;;;;;;;;;;10399836;28;20442;-72
2020/12/21 14:24:47;;;;;;;13.70;7.73;;;;;;;;;;10401108;28;20698;-73
2020/12/21 14:29:50;;;;;;;13.83;8.43;;;;;;;;;;10399806;28;20202;-73
2020/12/21 14:34:51;;;;;;;15.67;8.87;;;;;;;;;;10400220;28;20252;-73
2020/12/21 14:39:53;;;;;;;15.53;9.80;;;;;;;;;;10399477;28;20244;-73
2020/12/21 14:44:55;;;;;;;13.33;7.73;;;;;;;;;;10400390;28;20205;-74
2020/12/21 14:49:57;;;;;;;12.43;6.90;;;;;;;;;;10398030;28;20289;-75
2020/12/21 14:54:58;;;;;;;14.10;6.53;;;;;;;;;;10398359;28;20216;-73
2020/12/21 15:00:01;;;;;;;10.60;5.20;;;;;;;;;;10408103;28;20665;-72
2020/12/21 15:05:05;;;;;;;11.07;6.03;;;;;;;;;;10407093;28;20320;-74
2020/12/21 15:10:07;;;;;;;9.93;6.00;;;;;;;;;;10407388;28;20734;-73
2020/12/21 15:15:11;;;;;;;9.90;4.97;;;;;;;;;;10404224;28;20214;-74
2020/12/21 15:20:12;;;;;;;8.23;4.17;;;;;;;;;;10400211;28;20392;-73
2020/12/21 15:25:14;;;;;;;6.60;3.03;;;;;;;;;;10407338;28;20316;-73
2020/12/21 15:30:17;;;;;;;7.40;4.07;;;;;;;;;;10405466;28;20527;-72
2020/12/21 15:35:18;;;;;;;9.83;5.13;;;;;;;;;;10404093;28;20218;-74
2020/12/21 15:40:19;;;;;;;10.10;5.20;;;;;;;;;;10405749;28;20292;-72
2020/12/21 15:45:28;;;;;;;4.93;2.90;;;;;;;;;;10399594;28;20590;-73
2020/12/21 15:50:30;;;;;;;11.07;5.67;;;;;;;;;;10403335;28;20282;-73
2020/12/21 15:55:32;;;;;;;9.67;4.77;;;;;;;;;;10398758;28;20209;-73
2020/12/21 16:00:34;;;;;;;9.63;5.57;;;;;;;;;;10405240;28;20202;-73
2020/12/21 16:05:36;;;;;;;9.50;5.27;;;;;;;;;;10405577;28;20222;-72
2020/12/21 16:10:37;;;;;;;11.73;6.23;;;;;;;;;;10400741;28;20650;-71
2020/12/21 16:15:47;;;;;;;8.90;4.70;;;;;;;;;;10405325;28;20293;-73
2020/12/21 16:20:49;;;;;;;11.17;5.83;;;;;;;;;;10403241;28;20214;-72
2020/12/21 16:25:50;;;;;;;8.60;4.77;;;;;;;;;;10400095;28;20316;-72
2020/12/21 16:30:53;;;;;;;7.00;3.27;;;;;;;;;;10403244;28;20190;-69
2020/12/21 16:35:54;;;;;;;8.30;3.53;;;;;;;;;;10395467;28;20287;-72
2020/12/21 16:40:56;;;;;;;8.33;3.70;;;;;;;;;;10394369;28;20287;-72
2020/12/21 16:46:05;;;;;;;8.50;4.30;;;;;;;;;;10397546;28;20209;-73
2020/12/21 16:51:07;;;;;;;7.73;4.03;;;;;;;;;;10403155;28;20260;-73
2020/12/21 16:56:09;;;;;;;11.00;5.23;;;;;;;;;;10403831;28;20243;-73
2020/12/21 17:01:13;;;;;;;9.10;4.73;;;;;;;;;;10402494;28;20214;-71
2020/12/21 17:06:16;;;;;;;8.40;4.73;;;;;;;;;;10403346;28;20193;-73
2020/12/21 17:11:18;;;;;;;9.07;4.07;;;;;;;;;;10403092;28;20572;-73
2020/12/21 17:16:25;;;;;;;7.73;4.17;;;;;;;;;;10402691;28;20200;-72
2020/12/21 17:21:27;;;;;;;8.77;4.53;;;;;;;;;;10402283;28;20308;-71
2020/12/21 17:26:28;;;;;;;10.57;5.93;;;;;;;;;;10400306;28;20194;-72
2020/12/21 17:31:31;;;;;;;4.93;2.60;;;;;;;;;;10406303;28;20233;-74
2020/12/21 17:36:33;;;;;;;8.97;4.20;;;;;;;;;;10399600;28;20727;-74
2020/12/21 17:41:34;;;;;;;6.00;3.37;;;;;;;;;;10403400;28;20569;-73
2020/12/21 17:46:42;;;;;;;9.23;4.90;;;;;;;;;;10402004;28;20198;-73
2020/12/21 17:51:44;;;;;;;8.10;3.63;;;;;;;;;;10398805;28;20328;-73
2020/12/21 17:56:45;;;;;;;8.63;4.27;;;;;;;;;;10404810;28;20190;-72
2020/12/21 18:01:48;;;;;;;9.77;5.57;;;;;;;;;;10401074;28;20221;-72
2020/12/21 18:06:49;;;;;;;9.63;5.60;;;;;;;;;;10402782;28;20247;-72
2020/12/21 18:11:51;;;;;;;12.17;5.80;;;;;;;;;;10402782;28;20716;-73
2020/12/21 18:16:58;;;;;;;10.47;5.40;;;;;;;;;;10402512;28;20201;-73
2020/12/21 18:21:59;;;;;;;8.47;3.87;;;;;;;;;;10401635;28;20260;-74
2020/12/21 18:27:01;;;;;;;11.03;5.87;;;;;;;;;;10397519;28;20511;-72
2020/12/21 18:32:05;;;;;;;10.47;6.03;;;;;;;;;;10408931;28;20206;-72
2020/12/21 18:37:08;;;;;;;11.07;6.20;;;;;;;;;;10408689;28;20233;-73
2020/12/21 18:42:10;;;;;;;11.10;5.97;;;;;;;;;;10410838;28;20650;-73
2020/12/21 18:47:20;;;;;;;10.97;6.03;;;;;;;;;;10412048;28;20653;-74
2020/12/21 18:52:22;;;;;;;11.17;6.37;;;;;;;;;;10411592;28;20339;-74
2020/12/21 18:57:23;;;;;;;10.50;5.90;;;;;;;;;;10411518;28;20666;-73
2020/12/21 19:02:26;;;;;;;10.07;5.87;;;;;;;;;;10409217;28;20645;-74
2020/12/21 19:07:30;;;;;;;10.53;5.87;;;;;;;;;;10409569;28;20229;-72
2020/12/21 19:12:31;;;;;;;11.73;5.83;;;;;;;;;;10407732;28;20241;-74
2020/12/21 19:17:35;;;;;;;11.03;6.17;;;;;;;;;;10402059;28;20186;-74
2020/12/21 19:22:40;;;;;;;8.97;4.87;;;;;;;;;;10406607;28;20304;-73
2020/12/21 19:27:45;;;;;;;11.80;6.70;;;;;;;;;;10405972;28;20272;-73
2020/12/21 19:32:47;;;;;;;11.17;5.90;;;;;;;;;;10401365;28;20213;-73
2020/12/21 19:37:49;;;;;;;10.90;6.80;;;;;;;;;;10405337;28;20256;-74
2020/12/21 19:42:50;;;;;;;11.70;6.33;;;;;;;;;;10406896;28;20253;-73
2020/12/21 19:47:53;;;;;;;13.87;7.07;;;;;;;;;;10401805;28;20637;-73
2020/12/21 19:52:55;;;;;;;11.07;6.50;;;;;;;;;;10400001;28;20213;-73
2020/12/21 19:57:57;;;;;;;12.53;7.13;;;;;;;;;;10407632;28;20197;-73
2020/12/21 20:02:59;;;;;;;13.17;7.70;;;;;;;;;;10414806;28;20271;-74
2020/12/21 20:08:01;;;;;;;11.67;6.70;;;;;;;;;;10404269;28;20692;-72
2020/12/21 20:13:02;;;;;;;11.23;6.43;;;;;;;;;;10402092;28;20264;-74
2020/12/21 20:18:15;;;;;;;11.83;6.63;;;;;;;;;;10400859;28;20190;-72
2020/12/21 20:23:17;;;;;;;11.90;6.90;;;;;;;;;;10404718;28;20659;-73
2020/12/21 20:28:18;;;;;;;12.87;7.13;;;;;;;;;;10401532;28;20301;-73
2020/12/21 20:33:21;;;;;;;11.30;6.50;;;;;;;;;;10403891;28;20690;-72
2020/12/21 20:38:23;;;;;;;11.43;6.77;;;;;;;;;;10394557;28;20225;-74
2020/12/21 20:43:25;;;;;;;11.10;6.13;;;;;;;;;;10391740;28;20685;-71
2020/12/21 20:48:32;;;;;;;12.10;6.50;;;;;;;;;;10394690;28;20201;-73
2020/12/21 20:53:34;;;;;;;10.07;5.83;;;;;;;;;;10387995;28;20643;-72
2020/12/21 20:58:35;;;;;;;10.83;6.20;;;;;;;;;;10396664;28;20197;-71
2020/12/21 21:03:38;;;;;;;11.47;6.60;;;;;;;;;;10401263;28;20218;-73
2020/12/21 21:08:42;;;;;;;12.87;7.10;;;;;;;;;;10412312;28;20194;-72
2020/12/21 21:13:43;;;;;;;12.20;6.03;;;;;;;;;;10395137;28;20206;-72
2020/12/21 21:18:50;;;;;;;11.27;5.57;;;;;;;;;;10404785;28;20197;-73
2020/12/21 21:23:53;;;;;;;10.63;5.07;;;;;;;;;;10401167;28;20217;-74
2020/12/21 21:28:56;;;;;;;9.47;4.60;;;;;;;;;;10402172;28;20223;-72
2020/12/21 21:33:58;;;;;;;8.80;5.00;;;;;;;;;;10402984;28;20206;-75
2020/12/21 21:39:03;;;;;;;9.47;4.90;;;;;;;;;;10394236;28;20288;-72
2020/12/21 21:44:05;;;;;;;10.53;4.93;;;;;;;;;;10404170;28;20223;-74
2020/12/21 21:49:10;;;;;;;7.87;4.23;;;;;;;;;;10399981;28;20286;-72
2020/12/21 21:54:12;;;;;;;8.77;4.47;;;;;;;;;;10401869;28;20209;-74
2020/12/21 21:59:14;;;;;;;9.97;4.77;;;;;;;;;;10401889;28;20285;-74
2020/12/21 22:04:17;;;;;;;9.17;4.20;;;;;;;;;;10403478;28;20213;-72
2020/12/21 22:09:18;;;;;;;8.53;4.50;;;;;;;;;;10411720;28;20617;-74
2020/12/21 22:14:20;;;;;;;9.27;4.80;;;;;;;;;;10404659;28;20222;-73
2020/12/21 22:19:30;;;;;;;6.90;3.53;;;;;;;;;;10409601;28;20217;-72
2020/12/21 22:24:31;;;;;;;9.87;4.80;;;;;;;;;;10409834;28;20210;-72
2020/12/21 22:29:36;;;;;;;11.30;4.30;;;;;;;;;;10409671;28;20197;-74
2020/12/21 22:34:39;;;;;;;8.60;3.83;;;;;;;;;;10402079;28;20222;-73
2020/12/21 22:39:40;;;;;;;8.13;4.13;;;;;;;;;;10406791;28;20202;-74
2020/12/21 22:44:42;;;;;;;9.50;4.10;;;;;;;;;;10410113;28;20213;-74
2020/12/21 22:49:45;;;;;;;9.13;3.80;;;;;;;;;;10407548;28;20189;-73
2020/12/21 22:54:47;;;;;;;9.23;4.57;;;;;;;;;;10409112;28;20214;-72
2020/12/21 22:59:48;;;;;;;8.87;4.20;;;;;;;;;;10409243;28;20236;-72
2020/12/21 23:04:51;;;;;;;6.30;3.10;;;;;;;;;;10406878;28;20404;-71
2020/12/21 23:09:54;;;;;;;8.57;4.17;;;;;;;;;;10407744;28;20286;-72
2020/12/21 23:14:56;;;;;;;9.00;3.80;;;;;;;;;;10407848;28;20213;-72
2020/12/21 23:20:07;;;;;;;7.20;3.65;;;;;;;;;;10406363;28;20181;-72
2020/12/21 23:25:09;;;;;;;7.47;3.03;;;;;;;;;;10408834;28;20259;-74
2020/12/21 23:30:10;;;;;;;8.10;4.10;;;;;;;;;;10405889;28;20275;-71
2020/12/21 23:35:13;;;;;;;8.67;3.57;;;;;;;;;;10404894;28;20279;-72
2020/12/21 23:40:14;;;;;;;7.63;4.07;;;;;;;;;;10407352;28;20293;-72
2020/12/21 23:45:17;;;;;;;7.07;3.27;;;;;;;;;;10398904;28;20221;-73
2020/12/21 23:50:25;;;;;;;6.63;3.27;;;;;;;;;;10393593;28;20268;-73
2020/12/21 23:55:26;;;;;;;9.17;3.70;;;;;;;;;;10407516;28;20209;-73
